Time;durP1;ratioP1;P1;durP2;ratioP2;P2;SDS_P1;SDS_P2;PMS_P1;PMS_P2;Temp;Humidity;BMP_temperature;BMP_pressure;BME280_temperature;BME280_humidity;BME280_pressure;Samples;Min_cycle;Max_cycle;Signal;HPM_P1;HPM_P2
2022/06/22 00:01:19;;;;;;;10.30;9.40;;;;;;;22.16;80.36;97576.78;4134913;28;20978;-86
2022/06/22 00:03:25;;;;;;;8.67;7.93;;;;;;;22.11;80.51;97563.25;4151054;28;20702;-86
2022/06/22 00:05:34;;;;;;;9.80;8.90;;;;;;;22.07;79.91;97561.94;4139851;28;21025;-86
2022/06/22 00:07:41;;;;;;;9.30;8.37;;;;;;;22.04;80.44;97557.03;4128517;28;20632;-86
2022/06/22 00:09:46;;;;;;;9.60;8.70;;;;;;;22.03;79.71;97547.44;4139019;28;21264;-86
2022/06/22 00:11:49;;;;;;;10.20;7.90;;;;;;;22.03;78.90;97545.56;4135319;28;21074;-86
2022/06/22 00:13:56;;;;;;;9.27;8.37;;;;;;;22.04;78.78;97547.22;4125795;28;21200;-86
2022/06/22 00:16:00;;;;;;;9.33;8.43;;;;;;;22.02;79.15;97543.91;4124334;28;20655;-86
2022/06/22 00:18:22;;;;;;;8.23;7.53;;;;;;;22.01;79.91;97546.75;4138184;28;21364;-86
2022/06/22 00:20:31;;;;;;;11.13;9.20;;;;;;;22.00;80.44;97542.47;4142476;28;20736;-86
2022/06/22 00:22:47;;;;;;;9.03;8.00;;;;;;;21.98;80.10;97550.63;4128749;28;20629;-86
2022/06/22 00:24:56;;;;;;;10.67;9.57;;;;;;;21.96;80.48;97543.84;4125323;28;21397;-86
2022/06/22 00:27:08;;;;;;;10.07;8.00;;;;;;;21.92;80.89;97545.22;4140969;28;20667;-86
2022/06/22 00:29:23;;;;;;;9.40;8.40;;;;;;;21.88;80.81;97539.50;4139060;28;20644;-86
2022/06/22 00:31:35;;;;;;;9.57;8.63;;;;;;;21.83;81.68;97538.38;4139807;28;20654;-86
2022/06/22 00:33:38;;;;;;;10.17;9.20;;;;;;;21.77;81.50;97533.84;4127924;28;20638;-86
2022/06/22 00:35:50;;;;;;;10.90;8.30;;;;;;;21.74;82.51;97525.41;4125430;28;20632;-87
2022/06/22 00:37:54;;;;;;;9.90;8.43;;;;;;;21.70;81.44;97519.66;4137636;28;20624;-86
2022/06/22 00:40:00;;;;;;;8.63;7.83;;;;;;;21.69;82.16;97511.91;4138597;28;20634;-87
2022/06/22 00:42:15;;;;;;;8.83;8.03;;;;;;;21.68;82.34;97508.44;4139134;28;20655;-86
2022/06/22 00:44:19;;;;;;;10.23;9.20;;;;;;;21.68;81.55;97513.75;4125936;28;20644;-86
2022/06/22 00:46:23;;;;;;;10.07;9.07;;;;;;;21.66;83.00;97515.72;4137793;28;20641;-86
2022/06/22 00:48:30;;;;;;;10.40;9.40;;;;;;;21.66;81.85;97517.56;4138534;28;20634;-86
2022/06/22 00:50:39;;;;;;;10.20;9.20;;;;;;;21.63;81.74;97521.41;4119844;28;21159;-86
2022/06/22 00:52:46;;;;;;;11.60;9.00;;;;;;;21.60;82.36;97521.78;4124640;28;20788;-86
2022/06/22 00:54:49;;;;;;;9.57;8.40;;;;;;;21.57;82.00;97522.16;4148063;28;20643;-86
2022/06/22 00:56:55;;;;;;;10.23;9.23;;;;;;;21.55;81.46;97520.72;4126129;28;20629;-86
2022/06/22 00:59:01;;;;;;;9.60;8.73;;;;;;;21.53;82.53;97523.56;4153216;28;20639;-86
2022/06/22 01:01:08;;;;;;;10.27;9.37;;;;;;;21.50;82.58;97523.94;4137478;28;20677;-86
2022/06/22 01:03:18;;;;;;;10.13;9.13;;;;;;;21.47;82.37;97524.31;4137268;28;21323;-86
2022/06/22 01:05:25;;;;;;;10.37;9.40;;;;;;;21.43;82.82;97525.63;4125581;28;20737;-86
2022/06/22 01:07:38;;;;;;;9.10;8.30;;;;;;;21.41;81.85;97540.94;4125716;28;20655;-86
2022/06/22 01:09:47;;;;;;;9.20;8.27;;;;;;;21.36;83.18;97530.06;4116768;28;20721;-86
2022/06/22 01:14:26;;;;;;;9.90;8.90;;;;;;;21.25;83.40;97531.53;4122198;28;20646;-86
2022/06/22 01:16:38;;;;;;;9.83;8.83;;;;;;;21.21;83.35;97535.53;4113065;28;20650;-86
2022/06/22 01:18:45;;;;;;;9.83;8.93;;;;;;;21.17;83.19;97542.22;4117679;28;21031;-86
2022/06/22 01:20:57;;;;;;;9.73;8.73;;;;;;;21.15;83.24;97549.53;4135029;28;20635;-86
2022/06/22 01:23:24;;;;;;;10.27;8.83;;;;;;;21.13;83.14;97549.72;4137408;28;20694;-87
2022/06/22 01:25:42;;;;;;;10.10;9.20;;;;;;;21.09;82.73;97547.63;4127141;28;20695;-86
2022/06/22 01:27:47;;;;;;;10.60;9.70;;;;;;;21.06;83.34;97558.59;4149278;28;20619;-86
2022/06/22 01:29:52;;;;;;;10.23;9.33;;;;;;;21.01;84.67;97556.50;4114810;28;21018;-86
2022/06/22 01:32:01;;;;;;;10.83;9.77;;;;;;;20.99;83.64;97557.69;4138070;28;20667;-86
2022/06/22 01:34:13;;;;;;;10.40;9.40;;;;;;;20.98;83.48;97562.16;4146045;28;21494;-86
2022/06/22 01:36:22;;;;;;;12.30;9.80;;;;;;;20.99;82.84;97568.31;4123746;28;21237;-86
2022/06/22 01:38:28;;;;;;;10.57;9.57;;;;;;;21.02;84.00;97570.59;4149952;28;20643;-86
2022/06/22 01:40:37;;;;;;;10.77;9.33;;;;;;;21.03;82.83;97566.91;4123329;28;21234;-86
2022/06/22 01:42:46;;;;;;;9.60;8.70;;;;;;;21.03;84.66;97565.09;4138257;28;20602;-86
2022/06/22 01:44:53;;;;;;;10.13;9.20;;;;;;;21.01;84.31;97560.97;4139875;28;20619;-86
2022/06/22 01:47:23;;;;;;;11.20;9.67;;;;;;;21.02;82.82;97552.03;4140145;28;20622;-86
2022/06/22 01:49:30;;;;;;;9.57;8.70;;;;;;;21.00;83.86;97548.72;4124703;28;20635;-86
2022/06/22 01:51:36;;;;;;;10.33;9.33;;;;;;;20.97;83.91;97539.31;4139538;28;20632;-86
2022/06/22 01:53:40;;;;;;;10.40;9.37;;;;;;;20.97;83.67;97530.50;4123076;28;20665;-86
2022/06/22 01:55:50;;;;;;;11.60;8.80;;;;;;;20.94;82.62;97536.19;4137872;28;20982;-86
2022/06/22 01:58:01;;;;;;;10.30;9.30;;;;;;;20.92;82.71;97522.28;4124485;28;20643;-86
2022/06/22 02:00:07;;;;;;;12.20;9.30;;;;;;;20.91;83.24;97517.97;4136693;28;21201;-86
2022/06/22 02:02:21;;;;;;;9.47;8.67;;;;;;;20.89;82.72;97525.31;4133935;28;21225;-86
2022/06/22 02:04:46;;;;;;;9.00;8.20;;;;;;;20.94;82.39;97536.19;4126518;28;20689;-86
2022/06/22 02:09:24;;;;;;;9.40;8.50;;;;;;;20.97;81.46;97538.47;4133659;28;20653;-86
2022/06/22 02:11:28;;;;;;;9.40;7.90;;;;;;;20.95;82.68;97538.66;4127738;28;20647;-86
2022/06/22 02:13:38;;;;;;;9.90;9.00;;;;;;;20.96;83.49;97536.84;4138562;28;21287;-86
2022/06/22 02:15:56;;;;;;;11.67;8.30;;;;;;;20.98;82.55;97548.06;4139948;28;20633;-86
2022/06/22 02:17:59;;;;;;;9.50;8.60;;;;;;;20.94;82.71;97555.59;4122082;28;20675;-86
2022/06/22 02:20:33;;;;;;;8.53;7.73;;;;;;;20.92;83.27;97557.56;4136360;28;20634;-87
2022/06/22 02:22:36;;;;;;;8.63;7.93;;;;;;;20.91;83.29;97571.84;4075162;28;20646;-86
2022/06/22 02:24:41;;;;;;;10.23;9.23;;;;;;;20.93;83.67;97574.34;4140677;28;20623;-86
2022/06/22 02:26:47;;;;;;;10.17;9.17;;;;;;;20.93;84.37;97574.34;4126679;28;20631;-86
2022/06/22 02:28:52;;;;;;;9.73;8.73;;;;;;;20.90;84.63;97575.50;4139348;28;20635;-86
2022/06/22 02:30:55;;;;;;;10.47;9.37;;;;;;;20.89;84.02;97584.47;4142088;28;20627;-86
2022/06/22 02:32:58;;;;;;;10.47;8.50;;;;;;;20.87;84.45;97586.47;4123485;28;20667;-86
2022/06/22 02:35:01;;;;;;;9.23;8.43;;;;;;;20.85;84.11;97585.84;4114973;28;20982;-86
2022/06/22 02:37:07;;;;;;;9.53;8.53;;;;;;;20.81;83.16;97579.25;4120470;28;21259;-87
2022/06/22 02:39:11;;;;;;;11.87;9.07;;;;;;;20.80;84.86;97579.41;4125438;28;20639;-86
2022/06/22 02:45:58;;;;;;;9.97;8.97;;;;;;;20.76;85.87;97556.91;4137394;28;21058;-86
2022/06/22 02:48:19;;;;;;;9.63;8.83;;;;;;;20.77;86.14;97577.13;4143089;28;20997;-86
2022/06/22 02:50:26;;;;;;;9.93;8.93;;;;;;;20.76;85.32;97572.81;4135412;28;20642;-86
2022/06/22 02:52:35;;;;;;;11.30;9.30;;;;;;;20.74;85.56;97574.00;4125346;28;21034;-86
2022/06/22 02:54:43;;;;;;;10.67;9.67;;;;;;;20.73;85.21;97573.16;4125892;28;20754;-87
2022/06/22 02:56:50;;;;;;;10.50;8.80;;;;;;;20.67;85.06;97563.28;4125089;28;20730;-86
2022/06/22 02:58:53;;;;;;;12.50;9.60;;;;;;;20.65;85.67;97545.91;4139456;28;20659;-86
2022/06/22 03:00:59;;;;;;;11.30;10.20;;;;;;;20.64;85.14;97544.25;4154624;28;21284;-86
2022/06/22 03:03:08;;;;;;;9.63;8.70;;;;;;;20.63;86.40;97534.66;4137637;28;20634;-87
2022/06/22 03:05:13;;;;;;;13.10;10.47;;;;;;;20.64;85.30;97536.28;4139957;28;20746;-87
2022/06/22 03:07:17;;;;;;;10.93;9.80;;;;;;;20.62;84.92;97533.81;4122754;28;20639;-87
2022/06/22 03:09:21;;;;;;;10.70;9.70;;;;;;;20.60;85.60;97527.88;4138620;28;22012;-87
2022/06/22 03:11:24;;;;;;;10.30;9.30;;;;;;;20.58;86.32;97527.25;4125911;28;20742;-87
2022/06/22 03:13:34;;;;;;;10.23;9.20;;;;;;;20.58;84.91;97521.94;4138908;28;21267;-87
2022/06/22 03:15:39;;;;;;;10.97;9.80;;;;;;;20.57;85.39;97520.28;4123518;28;21287;-87
2022/06/22 03:17:44;;;;;;;10.60;9.50;;;;;;;20.55;85.92;97514.34;4136473;28;20619;-87
2022/06/22 03:19:50;;;;;;;9.80;8.90;;;;;;;20.55;86.13;97506.41;4127078;28;21013;-87
2022/06/22 03:21:53;;;;;;;10.80;9.70;;;;;;;20.56;86.87;97515.16;4125852;28;20654;-87
2022/06/22 03:24:02;;;;;;;10.57;9.50;;;;;;;20.58;86.00;97511.34;4140541;28;21259;-87
2022/06/22 03:26:08;;;;;;;9.70;8.80;;;;;;;20.61;86.93;97510.16;4123800;28;20634;-87
2022/06/22 03:28:15;;;;;;;9.57;7.90;;;;;;;20.64;85.21;97500.03;4137175;28;20630;-87
2022/06/22 03:30:20;;;;;;;8.60;7.77;;;;;;;20.72;85.38;97499.97;4137061;28;20729;-87
2022/06/22 03:32:26;;;;;;;9.67;8.67;;;;;;;20.76;84.92;97495.94;4141427;28;20697;-87
2022/06/22 03:34:35;;;;;;;8.73;7.93;;;;;;;20.77;86.34;97507.38;4125328;28;20688;-87
2022/06/22 03:36:42;;;;;;;8.87;7.43;;;;;;;20.80;86.44;97524.56;4136700;28;20638;-87
2022/06/22 03:38:48;;;;;;;10.50;7.83;;;;;;;20.86;86.31;97525.66;4135464;28;20619;-87
2022/06/22 03:40:54;;;;;;;8.50;7.70;;;;;;;20.88;85.26;97526.28;4124723;28;20638;-87
2022/06/22 03:43:03;;;;;;;8.83;8.10;;;;;;;20.89;84.46;97533.25;4137681;28;20987;-87
2022/06/22 03:45:10;;;;;;;10.33;9.30;;;;;;;20.81;85.55;97543.94;4127398;28;20636;-87
2022/06/22 03:47:16;;;;;;;10.30;9.30;;;;;;;20.76;86.02;97551.59;4124212;28;21218;-87
2022/06/22 03:49:26;;;;;;;10.53;9.53;;;;;;;20.77;85.63;97555.09;4126195;28;20719;-87
2022/06/22 03:51:34;;;;;;;10.00;9.00;;;;;;;20.79;86.99;97559.19;4137902;28;21184;-87
2022/06/22 03:53:41;;;;;;;9.73;8.87;;;;;;;20.79;87.05;97556.53;4138000;28;20647;-87
2022/06/22 03:55:48;;;;;;;11.93;9.00;;;;;;;20.80;85.90;97557.38;4125976;28;20626;-87
2022/06/22 03:57:53;;;;;;;11.33;8.77;;;;;;;20.80;85.29;97558.22;4126848;28;21305;-87
2022/06/22 03:59:57;;;;;;;11.17;10.07;;;;;;;20.68;84.93;97548.22;4126152;28;20622;-87
2022/06/22 04:02:03;;;;;;;10.30;9.30;;;;;;;20.62;86.02;97554.22;4123216;28;20697;-87
2022/06/22 04:04:06;;;;;;;10.40;9.30;;;;;;;20.61;85.95;97561.34;4115272;28;20839;-87
2022/06/22 04:06:16;;;;;;;10.23;9.33;;;;;;;20.67;86.16;97570.41;4140586;28;20664;-88
2022/06/22 04:08:24;;;;;;;10.10;9.20;;;;;;;20.75;86.24;97570.34;4125104;28;20746;-87
2022/06/22 04:10:40;;;;;;;10.27;9.27;;;;;;;20.81;86.60;97567.81;4123835;28;20638;-87
2022/06/22 04:12:47;;;;;;;10.20;9.20;;;;;;;20.86;85.64;97570.75;4138279;28;20654;-87
2022/06/22 04:14:55;;;;;;;10.67;9.67;;;;;;;20.90;86.31;97572.03;4135862;28;20773;-87
2022/06/22 04:17:01;;;;;;;11.13;10.03;;;;;;;20.96;84.59;97574.78;4139352;28;20642;-87
2022/06/22 04:19:13;;;;;;;10.70;9.57;;;;;;;21.00;85.48;97575.22;4125448;28;20622;-87
2022/06/22 04:21:21;;;;;;;12.33;10.90;;;;;;;21.04;86.01;97574.69;4118232;28;20632;-88
2022/06/22 04:23:32;;;;;;;12.47;9.57;;;;;;;21.05;83.61;97573.69;4136312;28;20638;-87
2022/06/22 04:25:37;;;;;;;10.70;9.70;;;;;;;21.07;85.00;97578.81;4140081;28;21066;-90
2022/06/22 04:27:42;;;;;;;11.10;10.00;;;;;;;21.12;84.72;97573.78;4136135;28;20657;-88
2022/06/22 04:29:48;;;;;;;11.27;9.53;;;;;;;21.15;85.31;97586.69;4139257;28;20631;-87
2022/06/22 04:31:55;;;;;;;10.80;9.87;;;;;;;21.16;83.30;97575.88;4140602;28;20693;-90
2022/06/22 04:34:01;;;;;;;11.60;10.53;;;;;;;21.22;85.33;97574.34;4142541;28;20634;-90
2022/06/22 04:36:08;;;;;;;11.20;9.97;;;;;;;21.26;84.04;97579.09;4123984;28;20645;-86
2022/06/22 04:38:21;;;;;;;11.67;9.37;;;;;;;21.30;84.59;97583.88;4144598;28;20658;-96
2022/06/22 04:40:32;;;;;;;10.77;9.77;;;;;;;21.32;84.92;97591.66;4105918;28;20641;-88
2022/06/22 04:42:35;;;;;;;11.10;10.00;;;;;;;21.35;85.30;97586.78;4140040;28;21224;-88
2022/06/22 04:44:44;;;;;;;11.47;10.37;;;;;;;21.40;84.09;97583.59;4123645;28;20640;-88
2022/06/22 04:46:59;;;;;;;13.00;9.57;;;;;;;21.42;84.08;97581.56;4123416;28;20643;-88
2022/06/22 04:49:19;;;;;;;11.50;10.30;;;;;;;21.41;82.24;97586.06;4145521;28;20651;-89
2022/06/22 04:51:26;;;;;;;10.47;9.57;;;;;;;21.38;83.80;97582.97;4146019;28;20688;-89
2022/06/22 04:53:31;;;;;;;10.97;9.83;;;;;;;21.36;84.13;97579.63;4136787;28;20639;-90
2022/06/22 04:55:38;;;;;;;11.40;10.20;;;;;;;21.38;83.07;97581.13;4154142;28;20658;-90
2022/06/22 04:57:42;;;;;;;12.90;11.70;;;;;;;21.40;84.69;97584.41;4127908;28;20902;-90
2022/06/22 04:59:46;;;;;;;12.80;10.70;;;;;;;21.45;84.57;97587.34;4144322;28;20643;-90
2022/06/22 05:01:53;;;;;;;11.77;10.70;;;;;;;21.46;83.11;97583.69;4126816;28;21003;-90
2022/06/22 05:03:59;;;;;;;11.40;10.20;;;;;;;21.51;83.58;97588.44;4130751;28;20612;-91
2022/06/22 05:06:08;;;;;;;10.63;9.53;;;;;;;21.55;84.47;97587.09;4121557;28;20656;-91
2022/06/22 05:08:16;;;;;;;11.70;10.60;;;;;;;21.61;84.18;97587.16;4119378;28;20636;-90
2022/06/22 05:10:29;;;;;;;12.30;11.10;;;;;;;21.70;84.83;97588.72;4138120;28;20742;-90
2022/06/22 05:12:45;;;;;;;12.23;11.03;;;;;;;21.81;84.51;97594.38;4143091;28;21015;-90
2022/06/22 05:14:49;;;;;;;11.77;10.67;;;;;;;21.92;83.83;97593.91;4132530;28;20657;-90
2022/06/22 05:16:57;;;;;;;14.77;13.37;;;;;;;22.04;83.92;97587.09;4124011;28;20646;-90
2022/06/22 05:19:01;;;;;;;11.30;10.20;;;;;;;22.14;82.83;97586.78;4140145;28;21008;-90
2022/06/22 05:21:09;;;;;;;11.47;10.33;;;;;;;22.24;82.17;97590.81;4123624;28;20704;-91
2022/06/22 05:23:13;;;;;;;11.60;10.17;;;;;;;22.36;82.51;97592.78;4130186;28;21263;-90
2022/06/22 05:25:17;;;;;;;11.30;10.20;;;;;;;22.43;82.56;97579.53;4131828;28;20660;-90
2022/06/22 05:27:23;;;;;;;11.53;10.37;;;;;;;22.46;82.09;97579.16;4127429;28;20673;-91
2022/06/22 05:29:31;;;;;;;11.07;10.10;;;;;;;22.47;83.41;97581.63;4140096;28;20685;-89
2022/06/22 05:31:36;;;;;;;13.33;10.87;;;;;;;22.49;82.34;97579.63;4135264;28;20699;-90
2022/06/22 05:33:43;;;;;;;11.53;10.43;;;;;;;22.52;82.30;97581.91;4127245;28;20630;-90
2022/06/22 05:35:54;;;;;;;11.73;10.50;;;;;;;22.55;82.62;97573.53;4123162;28;20677;-91
2022/06/22 05:37:59;;;;;;;11.63;10.50;;;;;;;22.58;83.30;97575.81;4123081;28;20640;-91
2022/06/22 05:40:04;;;;;;;13.57;10.63;;;;;;;22.60;82.23;97576.44;4135432;28;21213;-90
2022/06/22 05:42:08;;;;;;;11.77;10.30;;;;;;;22.63;82.61;97576.06;4146357;28;20634;-90
2022/06/22 05:44:14;;;;;;;11.73;10.53;;;;;;;22.70;83.93;97586.75;4118843;28;20673;-90
2022/06/22 05:46:19;;;;;;;11.13;10.07;;;;;;;22.75;83.19;97590.47;4142428;28;20699;-90
2022/06/22 05:48:24;;;;;;;12.07;10.27;;;;;;;22.79;82.53;97583.75;4137621;28;20631;-90
2022/06/22 05:50:35;;;;;;;12.07;10.03;;;;;;;22.84;82.38;97584.81;4140917;28;20753;-90
2022/06/22 05:52:42;;;;;;;14.27;11.03;;;;;;;22.90;82.14;97593.88;4140891;28;20691;-90
2022/06/22 05:54:50;;;;;;;14.47;10.63;;;;;;;22.96;82.19;97599.28;4134568;28;20678;-90
2022/06/22 05:56:58;;;;;;;11.87;10.60;;;;;;;23.00;81.87;97602.38;4128509;28;20675;-90
2022/06/22 05:59:08;;;;;;;11.10;10.20;;;;;;;23.02;81.98;97603.81;4125334;28;20633;-91
2022/06/22 06:01:18;;;;;;;11.10;10.00;;;;;;;23.05;81.31;97608.75;4138450;28;20640;-91
2022/06/22 06:03:33;;;;;;;11.90;10.80;;;;;;;23.04;81.55;97606.28;4136392;28;20648;-91
2022/06/22 06:05:41;;;;;;;12.50;11.30;;;;;;;23.01;82.12;97602.16;4132113;28;20682;-91
2022/06/22 06:07:47;;;;;;;11.00;10.03;;;;;;;23.02;81.37;97606.50;4143094;28;21088;-91
2022/06/22 06:09:50;;;;;;;11.60;10.50;;;;;;;23.03;81.60;97607.31;4127354;28;20691;-91
2022/06/22 06:12:03;;;;;;;13.47;10.10;;;;;;;23.02;81.28;97602.97;4127246;28;20646;-92
2022/06/22 06:14:21;;;;;;;9.87;8.93;;;;;;;23.06;81.61;97607.72;4138780;28;20663;-92
2022/06/22 06:16:28;;;;;;;11.63;10.53;;;;;;;23.11;81.43;97615.13;4140801;28;20647;-91
2022/06/22 06:18:34;;;;;;;11.10;10.10;;;;;;;23.14;80.96;97612.09;4140629;28;20650;-91
2022/06/22 06:20:40;;;;;;;11.30;10.20;;;;;;;23.20;80.31;97622.81;4141291;28;20639;-91
2022/06/22 06:22:43;;;;;;;10.00;9.00;;;;;;;23.32;80.85;97621.25;4131566;28;20649;-91
2022/06/22 06:29:46;;;;;;;10.93;9.93;;;;;;;23.54;81.00;97623.63;4131822;28;20988;-90
2022/06/22 06:31:59;;;;;;;11.37;10.17;;;;;;;23.56;80.09;97623.41;4134417;28;20641;-90
2022/06/22 06:34:10;;;;;;;11.37;10.27;;;;;;;23.56;80.82;97624.25;4153991;28;20635;-90
2022/06/22 06:36:17;;;;;;;11.00;10.00;;;;;;;23.63;80.72;97625.09;4143325;28;20656;-90
2022/06/22 06:38:25;;;;;;;12.53;10.87;;;;;;;23.70;81.50;97620.69;4143153;28;20686;-90
2022/06/22 06:40:34;;;;;;;12.00;10.80;;;;;;;23.78;80.65;97634.63;4139980;28;20637;-91
2022/06/22 06:42:41;;;;;;;11.20;10.17;;;;;;;23.88;80.50;97639.63;4116679;28;21343;-90
2022/06/22 06:44:45;;;;;;;11.87;10.37;;;;;;;23.96;80.71;97644.78;4146611;28;20648;-90
2022/06/22 06:46:53;;;;;;;11.07;10.17;;;;;;;24.01;79.41;97653.84;4136685;28;20681;-90
2022/06/22 06:49:24;;;;;;;16.93;14.10;;;;;;;24.07;80.55;97660.19;4134447;28;20646;-90
2022/06/22 06:51:30;;;;;;;11.63;10.30;;;;;;;24.08;80.68;97673.34;4139620;28;20635;-89
2022/06/22 06:53:39;;;;;;;11.20;10.03;;;;;;;24.09;80.80;97669.66;4118621;28;20633;-89
2022/06/22 06:55:46;;;;;;;11.93;10.10;;;;;;;24.10;80.45;97679.31;4137767;28;20654;-90
2022/06/22 06:58:00;;;;;;;12.43;10.00;;;;;;;24.12;81.66;97687.13;4137668;28;20622;-89
2022/06/22 07:00:10;;;;;;;12.50;10.33;;;;;;;24.13;82.23;97691.41;4133007;28;21088;-89
2022/06/22 07:02:17;;;;;;;11.20;10.20;;;;;;;24.15;81.94;97698.19;4137790;28;20637;-89
2022/06/22 07:04:25;;;;;;;11.90;10.70;;;;;;;24.13;81.14;97697.56;4123411;28;20638;-89
2022/06/22 07:06:29;;;;;;;12.13;10.80;;;;;;;24.12;80.82;97703.09;4129900;28;20650;-89
2022/06/22 07:08:35;;;;;;;11.63;10.23;;;;;;;24.09;80.87;97703.50;4126448;28;20648;-89
2022/06/22 07:10:47;;;;;;;13.10;11.20;;;;;;;24.06;79.73;97701.22;4140111;28;21078;-89
2022/06/22 07:12:53;;;;;;;11.93;10.73;;;;;;;24.06;79.65;97703.91;4137630;28;20739;-89
2022/06/22 07:14:58;;;;;;;14.43;10.90;;;;;;;24.03;78.78;97707.75;4141863;28;20640;-89
2022/06/22 07:17:06;;;;;;;11.50;10.50;;;;;;;24.03;79.60;97715.75;4138164;28;20654;-89
2022/06/22 07:19:16;;;;;;;12.20;11.00;;;;;;;24.04;78.41;97714.75;4124121;28;21028;-89
2022/06/22 07:21:24;;;;;;;12.33;11.03;;;;;;;24.05;78.15;97711.03;4116868;28;21493;-89
2022/06/22 07:23:32;;;;;;;11.10;10.03;;;;;;;24.03;78.92;97712.28;4139678;28;20627;-89
2022/06/22 07:25:38;;;;;;;12.33;10.70;;;;;;;24.04;78.25;97708.59;4135827;28;20639;-89
2022/06/22 07:27:45;;;;;;;12.40;11.30;;;;;;;24.07;79.93;97711.69;4126900;28;20689;-89
2022/06/22 07:29:55;;;;;;;11.30;10.17;;;;;;;24.08;78.86;97709.84;4117680;28;20662;-90
2022/06/22 07:32:02;;;;;;;11.80;10.60;;;;;;;24.07;78.70;97705.53;4135499;28;21216;-90
2022/06/22 07:34:08;;;;;;;12.13;10.70;;;;;;;24.08;79.32;97709.84;4136868;28;20668;-89
2022/06/22 07:36:15;;;;;;;14.97;10.53;;;;;;;24.13;79.04;97710.06;4141239;28;21515;-89
2022/06/22 07:38:27;;;;;;;15.43;10.37;;;;;;;24.14;79.34;97714.38;4119040;28;20672;-89
2022/06/22 07:40:30;;;;;;;14.03;11.70;;;;;;;24.16;79.25;97719.31;4133824;28;21101;-89
2022/06/22 07:42:33;;;;;;;15.47;12.07;;;;;;;24.15;78.75;97716.03;4140426;28;20643;-89
2022/06/22 07:44:37;;;;;;;14.43;10.77;;;;;;;24.17;78.88;97710.28;4138665;28;21288;-89
2022/06/22 07:46:47;;;;;;;13.73;10.40;;;;;;;24.20;78.55;97717.06;4124883;28;20665;-89
2022/06/22 07:48:55;;;;;;;12.17;11.07;;;;;;;24.22;79.17;97707.88;4135634;28;20641;-89
2022/06/22 07:51:02;;;;;;;17.20;11.33;;;;;;;24.24;78.81;97705.81;4142539;28;21290;-89
2022/06/22 07:53:16;;;;;;;16.77;15.07;;;;;;;24.25;79.74;97703.97;4126203;28;20740;-89
2022/06/22 07:55:31;;;;;;;14.57;11.33;;;;;;;24.23;79.71;97690.00;4120281;28;20752;-89
2022/06/22 07:57:39;;;;;;;13.60;10.87;;;;;;;24.21;79.79;97684.88;4133290;28;20658;-89
2022/06/22 07:59:48;;;;;;;15.47;11.10;;;;;;;24.16;78.69;97676.66;4136944;28;20651;-89
2022/06/22 08:01:55;;;;;;;13.73;12.33;;;;;;;24.17;78.90;97672.97;4131803;28;20644;-89
2022/06/22 08:04:02;;;;;;;13.80;12.10;;;;;;;24.16;77.84;97658.00;4123965;28;20746;-89
2022/06/22 08:06:08;;;;;;;13.37;10.93;;;;;;;24.14;77.77;97655.72;4122456;28;20674;-90
2022/06/22 08:08:18;;;;;;;12.60;11.27;;;;;;;24.14;78.29;97659.22;4136425;28;20673;-89
2022/06/22 08:10:24;;;;;;;13.30;11.90;;;;;;;24.19;80.02;97664.75;4120842;28;20691;-90
2022/06/22 08:12:32;;;;;;;13.90;11.40;;;;;;;24.20;78.61;97658.41;4124447;28;20643;-88
2022/06/22 08:15:17;;;;;;;13.80;11.77;;;;;;;24.24;79.37;97652.47;4116536;28;21052;-88
2022/06/22 08:17:30;;;;;;;18.77;11.73;;;;;;;24.24;78.41;97631.16;4120495;28;21164;-89
2022/06/22 08:19:34;;;;;;;14.60;11.60;;;;;;;24.31;77.72;97631.16;4126336;28;20658;-89
2022/06/22 08:21:42;;;;;;;16.53;12.57;;;;;;;24.34;78.34;97630.78;4136510;28;20685;-91
2022/06/22 08:23:46;;;;;;;16.80;12.70;;;;;;;24.38;77.85;97630.19;4126593;28;21042;-92
2022/06/22 08:25:52;;;;;;;13.20;11.90;;;;;;;24.46;78.72;97639.84;4127339;28;20744;-92
2022/06/22 08:27:55;;;;;;;13.67;11.37;;;;;;;24.53;77.95;97646.03;4121474;28;20647;-92
2022/06/22 08:29:58;;;;;;;14.20;12.13;;;;;;;24.56;78.40;97634.97;4131967;28;20699;-94
2022/06/22 08:32:07;;;;;;;13.80;12.30;;;;;;;24.66;78.38;97636.22;4125405;28;20643;-91
2022/06/22 08:34:31;;;;;;;12.07;10.87;;;;;;;24.72;77.87;97640.75;4114916;28;20685;-90
2022/06/22 08:36:40;;;;;;;14.00;11.30;;;;;;;24.74;77.94;97628.00;4132696;28;20663;-93
2022/06/22 08:38:47;;;;;;;13.00;10.90;;;;;;;24.71;77.14;97631.09;4139358;28;20735;-86
2022/06/22 08:40:55;;;;;;;13.30;11.20;;;;;;;24.73;77.11;97639.69;4125397;28;20631;-88
2022/06/22 08:43:01;;;;;;;12.47;11.07;;;;;;;24.75;77.59;97641.16;4122202;28;20722;-90
2022/06/22 08:45:35;;;;;;;13.93;11.07;;;;;;;24.83;78.26;97640.13;4138641;28;20650;-92
2022/06/22 08:47:50;;;;;;;12.83;11.43;;;;;;;24.86;75.60;97647.75;4139594;28;20728;-91
2022/06/22 08:50:06;;;;;;;14.93;13.43;;;;;;;24.86;77.66;97653.88;4116599;28;20653;-92
2022/06/22 08:52:18;;;;;;;20.57;18.40;;;;;;;24.92;78.19;97652.25;4140935;28;20636;-92
2022/06/22 08:54:38;;;;;;;12.30;10.93;;;;;;;24.93;78.29;97654.72;4124832;28;21197;-92
2022/06/22 08:56:50;;;;;;;11.53;10.43;;;;;;;24.93;78.20;97654.72;4128080;28;20689;-91
2022/06/22 08:59:14;;;;;;;14.90;12.57;;;;;;;24.92;77.71;97649.59;4122840;28;20722;-91
2022/06/22 09:01:25;;;;;;;13.10;11.80;;;;;;;24.90;77.56;97648.97;4134868;28;20644;-91
2022/06/22 09:03:54;;;;;;;12.93;11.73;;;;;;;24.87;79.13;97655.53;4123631;28;20744;-92
2022/06/22 09:06:18;;;;;;;12.77;10.67;;;;;;;24.83;77.03;97648.16;4155204;28;20683;-91
2022/06/22 09:08:37;;;;;;;12.33;11.03;;;;;;;24.77;76.94;97656.97;4136222;28;20688;-92
2022/06/22 09:10:51;;;;;;;13.20;10.93;;;;;;;24.75;77.31;97651.00;4119989;28;20699;-91
2022/06/22 09:13:07;;;;;;;16.40;14.80;;;;;;;24.73;77.72;97661.06;4115908;28;21344;-92
2022/06/22 09:15:23;;;;;;;17.87;16.07;;;;;;;24.70;77.74;97654.28;4110429;28;21421;-90
2022/06/22 09:17:48;;;;;;;13.07;11.87;;;;;;;24.65;77.89;97666.59;4132889;28;21050;-92
2022/06/22 09:20:13;;;;;;;12.97;11.73;;;;;;;24.59;79.15;97667.41;4117937;28;20646;-92
2022/06/22 09:22:19;;;;;;;17.83;12.17;;;;;;;24.59;78.92;97670.06;4138935;28;20673;-92
2022/06/22 09:24:24;;;;;;;14.27;12.70;;;;;;;24.60;78.84;97673.53;4122089;28;20683;-92
2022/06/22 09:26:36;;;;;;;12.80;11.60;;;;;;;24.64;77.90;97671.09;4115147;28;20653;-92
2022/06/22 09:28:47;;;;;;;14.80;13.40;;;;;;;24.69;78.76;97671.31;4131624;28;20664;-92
2022/06/22 09:31:03;;;;;;;21.60;12.70;;;;;;;24.73;78.68;97677.06;4125407;28;20669;-91
2022/06/22 09:34:15;;;;;;;13.37;12.07;;;;;;;24.78;79.21;97685.31;4134949;28;20739;-91
2022/06/22 09:36:30;;;;;;;14.90;12.80;;;;;;;24.80;77.47;97684.06;4081070;28;20761;-92
2022/06/22 09:38:51;;;;;;;12.93;11.83;;;;;;;24.77;77.95;97684.47;4131607;28;20661;-92
2022/06/22 09:41:00;;;;;;;14.27;12.50;;;;;;;24.83;78.31;97690.84;4118864;28;20672;-92
2022/06/22 09:43:43;;;;;;;14.40;12.90;;;;;;;24.89;77.63;97700.72;4113529;28;20650;-92
2022/06/22 09:45:59;;;;;;;13.77;12.37;;;;;;;24.86;78.19;97706.47;4079868;28;20715;-92
2022/06/22 09:48:16;;;;;;;14.60;13.13;;;;;;;24.89;78.53;97703.38;4121443;28;20693;-92
2022/06/22 09:50:44;;;;;;;16.10;13.50;;;;;;;24.94;77.89;97708.94;4119956;28;22383;-93
2022/06/22 09:53:30;;;;;;;18.03;13.33;;;;;;;24.99;78.84;97714.50;4136328;28;20644;-92
2022/06/22 09:59:03;;;;;;;14.83;13.43;;;;;;;25.12;76.76;97704.66;4132884;28;20649;-92
2022/06/22 10:01:12;;;;;;;16.20;13.50;;;;;;;25.13;77.60;97709.81;4118115;28;20642;-92
2022/06/22 10:03:39;;;;;;;14.87;13.47;;;;;;;25.13;79.05;97713.53;4117288;28;21290;-92
2022/06/22 10:06:02;;;;;;;16.60;14.90;;;;;;;25.10;77.67;97704.06;4136049;28;20677;-92
2022/06/22 10:08:16;;;;;;;17.73;15.87;;;;;;;25.15;77.84;97706.94;4137816;28;20749;-92
2022/06/22 10:10:32;;;;;;;16.33;14.60;;;;;;;25.24;79.30;97716.38;4111399;28;20639;-96
2022/06/22 10:12:49;;;;;;;16.00;14.40;;;;;;;25.20;77.40;97715.16;4112177;28;21259;-91
2022/06/22 10:15:12;;;;;;;15.53;13.93;;;;;;;25.25;79.17;97710.84;4132198;28;20649;-92
2022/06/22 10:17:30;;;;;;;17.20;15.40;;;;;;;25.35;77.65;97713.94;4127426;28;20650;-92
2022/06/22 10:20:05;;;;;;;15.87;14.00;;;;;;;25.46;76.78;97716.00;4118865;28;20672;-92